Time;durP1;ratioP1;P1;durP2;ratioP2;P2;SDS_P1;SDS_P2;PMS_P1;PMS_P2;Temp;Humidity;BMP_temperature;BMP_pressure;BME280_temperature;BME280_humidity;BME280_pressure;Samples;Min_cycle;Max_cycle;Signal;HPM_P1;HPM_P2
2023/09/21 00:00:13;;;;;;;1.27;1.08;;;;;;;;;;5041796;28;20037;-81
2023/09/21 00:02:49;;;;;;;0.90;0.90;;;;;;;;;;5047743;28;20043;-80
2023/09/21 00:05:22;;;;;;;0.70;0.70;;;;;;;;;;5055829;28;20020;-79
2023/09/21 00:07:49;;;;;;;0.90;0.90;;;;;;;;;;5041406;28;20438;-80
2023/09/21 00:10:15;;;;;;;1.10;1.10;;;;;;;;;;5042507;28;20037;-80
2023/09/21 00:12:42;;;;;;;0.90;0.90;;;;;;;;;;5037428;28;20052;-79
2023/09/21 00:15:09;;;;;;;1.00;1.00;;;;;;;;;;5039799;28;20252;-80
2023/09/21 00:17:36;;;;;;;1.20;1.20;;;;;;;;;;5038834;28;20041;-80
2023/09/21 00:20:10;;;;;;;0.90;0.90;;;;;;;;;;5037527;28;20114;-80
2023/09/21 00:22:37;;;;;;;0.90;0.90;;;;;;;;;;5039687;28;20033;-79
2023/09/21 00:25:04;;;;;;;1.13;1.10;;;;;;;;;;5046283;28;20033;-81
2023/09/21 00:27:30;;;;;;;0.85;0.85;;;;;;;;;;5040502;28;20021;-79
2023/09/21 00:29:56;;;;;;;1.08;0.98;;;;;;;;;;5039826;28;20037;-81
2023/09/21 00:32:25;;;;;;;1.05;1.05;;;;;;;;;;5042017;28;20087;-80
2023/09/21 00:34:52;;;;;;;0.90;0.90;;;;;;;;;;5039359;28;20486;-80
2023/09/21 00:37:18;;;;;;;1.13;1.05;;;;;;;;;;5039414;28;20037;-80
2023/09/21 00:39:44;;;;;;;1.00;1.00;;;;;;;;;;5049822;28;20006;-79
2023/09/21 00:42:10;;;;;;;1.42;1.30;;;;;;;;;;5053002;28;20080;-81
2023/09/21 00:44:36;;;;;;;1.17;1.08;;;;;;;;;;5038840;28;20026;-79
2023/09/21 00:47:03;;;;;;;1.05;1.05;;;;;;;;;;5037732;28;20093;-79
2023/09/21 00:49:31;;;;;;;1.15;1.10;;;;;;;;;;5037883;28;20039;-80
2023/09/21 00:51:58;;;;;;;1.25;1.15;;;;;;;;;;5039680;28;20372;-80
2023/09/21 00:54:24;;;;;;;1.30;1.20;;;;;;;;;;5038595;28;20441;-79
2023/09/21 00:56:54;;;;;;;1.00;1.00;;;;;;;;;;5040488;28;20100;-80
2023/09/21 00:59:21;;;;;;;1.13;1.02;;;;;;;;;;5041387;28;20141;-80
2023/09/21 01:01:48;;;;;;;1.48;1.38;;;;;;;;;;5041094;28;20030;-80
2023/09/21 01:04:15;;;;;;;0.93;0.93;;;;;;;;;;5038074;28;20017;-80
2023/09/21 01:06:41;;;;;;;1.20;1.10;;;;;;;;;;5037635;28;20116;-80
2023/09/21 01:09:08;;;;;;;1.00;1.00;;;;;;;;;;5039700;28;20018;-80
2023/09/21 01:11:37;;;;;;;0.98;0.98;;;;;;;;;;5040563;28;20036;-80
2023/09/21 01:14:03;;;;;;;1.10;1.10;;;;;;;;;;5040703;28;20075;-80
2023/09/21 01:16:30;;;;;;;1.23;1.15;;;;;;;;;;5039124;28;20053;-79
2023/09/21 01:18:56;;;;;;;1.25;1.10;;;;;;;;;;5039032;28;20029;-79
2023/09/21 01:21:25;;;;;;;1.02;1.02;;;;;;;;;;5039927;28;20025;-82
2023/09/21 01:23:52;;;;;;;1.13;1.10;;;;;;;;;;5048920;28;20021;-80
2023/09/21 01:26:18;;;;;;;1.35;1.23;;;;;;;;;;5053876;28;20494;-79
2023/09/21 01:28:46;;;;;;;1.40;1.30;;;;;;;;;;5044458;28;20057;-79
2023/09/21 01:31:13;;;;;;;1.00;0.95;;;;;;;;;;5052974;28;20022;-77
2023/09/21 01:33:39;;;;;;;1.00;1.00;;;;;;;;;;5055589;28;20054;-79
2023/09/21 01:36:10;;;;;;;1.00;1.00;;;;;;;;;;5056491;28;20040;-80
2023/09/21 01:38:37;;;;;;;1.10;0.95;;;;;;;;;;5056750;28;20056;-80
2023/09/21 01:41:04;;;;;;;1.00;1.00;;;;;;;;;;5054463;28;20113;-80
2023/09/21 01:43:30;;;;;;;1.30;1.20;;;;;;;;;;5052032;28;20510;-80
2023/09/21 01:45:56;;;;;;;1.30;1.20;;;;;;;;;;5040517;28;20022;-80
2023/09/21 01:48:22;;;;;;;1.08;1.08;;;;;;;;;;5039559;28;20349;-79
2023/09/21 01:50:50;;;;;;;0.98;0.98;;;;;;;;;;5037730;28;20071;-79
2023/09/21 01:53:21;;;;;;;1.08;1.08;;;;;;;;;;5041643;28;20100;-80
2023/09/21 01:55:48;;;;;;;0.90;0.90;;;;;;;;;;5042735;28;20021;-80
2023/09/21 01:58:15;;;;;;;1.15;1.05;;;;;;;;;;5042326;28;20025;-78
2023/09/21 02:00:46;;;;;;;1.02;1.02;;;;;;;;;;5050861;28;20028;-79
2023/09/21 02:03:13;;;;;;;1.02;1.02;;;;;;;;;;5051879;28;20040;-78
2023/09/21 02:05:42;;;;;;;0.73;0.73;;;;;;;;;;5044728;28;20041;-80
2023/09/21 02:08:09;;;;;;;1.05;1.00;;;;;;;;;;5040654;28;20092;-79
2023/09/21 02:10:38;;;;;;;0.80;0.80;;;;;;;;;;5040613;28;20029;-80
2023/09/21 02:13:05;;;;;;;0.80;0.80;;;;;;;;;;5041591;28;20105;-80
2023/09/21 02:15:34;;;;;;;0.70;0.70;;;;;;;;;;5041923;28;20089;-81
2023/09/21 02:18:02;;;;;;;0.60;0.60;;;;;;;;;;5039789;28;20029;-80
2023/09/21 02:20:29;;;;;;;0.70;0.70;;;;;;;;;;5041866;28;20029;-80
2023/09/21 02:23:02;;;;;;;0.70;0.70;;;;;;;;;;5042021;28;20034;-80
2023/09/21 02:25:34;;;;;;;0.70;0.63;;;;;;;;;;5041470;28;20069;-79
2023/09/21 02:28:06;;;;;;;0.60;0.60;;;;;;;;;;5041842;28;20067;-79
2023/09/21 02:30:33;;;;;;;0.80;0.80;;;;;;;;;;5042047;28;20388;-80
2023/09/21 02:32:59;;;;;;;0.75;0.75;;;;;;;;;;5043323;28;20097;-80
2023/09/21 02:35:27;;;;;;;0.80;0.80;;;;;;;;;;5043603;28;20017;-80
2023/09/21 02:37:54;;;;;;;0.80;0.80;;;;;;;;;;5042123;28;20026;-80
2023/09/21 02:40:21;;;;;;;0.70;0.70;;;;;;;;;;5033909;28;20041;-79
2023/09/21 02:42:54;;;;;;;0.90;0.90;;;;;;;;;;5042161;28;20101;-79
2023/09/21 02:45:23;;;;;;;0.55;0.55;;;;;;;;;;5040625;28;20021;-78
2023/09/21 02:47:51;;;;;;;0.70;0.70;;;;;;;;;;5040483;28;20108;-79
2023/09/21 02:50:21;;;;;;;0.80;0.80;;;;;;;;;;5036525;28;20018;-80
2023/09/21 02:52:54;;;;;;;0.60;0.60;;;;;;;;;;5022292;28;20041;-79
2023/09/21 02:55:21;;;;;;;0.88;0.88;;;;;;;;;;5022867;28;20030;-81
2023/09/21 02:57:49;;;;;;;0.80;0.80;;;;;;;;;;5028790;28;20021;-85
2023/09/21 03:00:49;;;;;;;0.70;0.70;;;;;;;;;;5044992;28;20027;-81
2023/09/21 03:03:10;;;;;;;0.50;0.50;;;;;;;;;;5038925;28;20029;-82
2023/09/21 03:05:39;;;;;;;0.60;0.60;;;;;;;;;;5054856;28;20049;-81
2023/09/21 03:08:14;;;;;;;0.70;0.70;;;;;;;;;;5058952;28;20026;-80
2023/09/21 03:10:45;;;;;;;0.70;0.70;;;;;;;;;;5045307;28;20025;-81
2023/09/21 03:13:18;;;;;;;0.60;0.60;;;;;;;;;;5056583;28;20017;-81
2023/09/21 03:15:50;;;;;;;0.50;0.50;;;;;;;;;;5051140;28;20030;-81
2023/09/21 03:18:16;;;;;;;0.50;0.50;;;;;;;;;;5046070;28;20027;-80
2023/09/21 03:20:43;;;;;;;0.70;0.70;;;;;;;;;;5040505;28;20037;-80
2023/09/21 03:23:10;;;;;;;0.70;0.70;;;;;;;;;;5037784;28;20404;-81
2023/09/21 03:25:40;;;;;;;0.70;0.70;;;;;;;;;;5036013;28;20022;-81
2023/09/21 03:28:10;;;;;;;0.60;0.60;;;;;;;;;;5043633;28;20028;-80
2023/09/21 03:30:39;;;;;;;0.60;0.60;;;;;;;;;;5046972;28;20076;-80
2023/09/21 03:33:06;;;;;;;0.60;0.60;;;;;;;;;;5053429;28;20032;-80
2023/09/21 03:35:32;;;;;;;0.75;0.75;;;;;;;;;;5055989;28;20049;-80
2023/09/21 03:37:59;;;;;;;0.95;0.75;;;;;;;;;;5052230;28;20037;-80
2023/09/21 03:40:25;;;;;;;0.50;0.50;;;;;;;;;;5046345;28;20036;-80
2023/09/21 03:42:54;;;;;;;0.65;0.65;;;;;;;;;;5044010;28;20103;-81
2023/09/21 03:45:24;;;;;;;0.60;0.50;;;;;;;;;;5041732;28;20037;-79
2023/09/21 03:47:51;;;;;;;0.52;0.52;;;;;;;;;;5050602;28;20029;-79
2023/09/21 03:50:17;;;;;;;0.60;0.60;;;;;;;;;;5043569;28;20056;-80
2023/09/21 03:52:44;;;;;;;0.60;0.60;;;;;;;;;;5041617;28;20146;-80
2023/09/21 03:55:12;;;;;;;0.60;0.60;;;;;;;;;;5050160;28;20030;-81
2023/09/21 03:57:39;;;;;;;0.65;0.65;;;;;;;;;;5050171;28;20029;-80
2023/09/21 04:00:29;;;;;;;0.65;0.65;;;;;;;;;;5050849;28;20033;-80
2023/09/21 04:02:57;;;;;;;0.60;0.60;;;;;;;;;;5046140;28;20033;-80
2023/09/21 04:05:30;;;;;;;0.60;0.60;;;;;;;;;;5029201;28;20018;-79
2023/09/21 04:07:57;;;;;;;0.60;0.60;;;;;;;;;;5027358;28;20081;-80
2023/09/21 04:10:23;;;;;;;0.70;0.70;;;;;;;;;;5028521;28;20530;-79
2023/09/21 04:12:50;;;;;;;0.60;0.60;;;;;;;;;;5029745;28;20037;-79
2023/09/21 04:15:19;;;;;;;0.85;0.85;;;;;;;;;;5048699;28;20025;-78
2023/09/21 04:17:45;;;;;;;0.70;0.70;;;;;;;;;;5035138;28;20075;-78
2023/09/21 04:20:12;;;;;;;0.77;0.77;;;;;;;;;;5025265;28;20040;-79
2023/09/21 04:22:43;;;;;;;0.88;0.82;;;;;;;;;;5028551;28;20025;-79
2023/09/21 04:25:10;;;;;;;0.70;0.70;;;;;;;;;;5043979;28;20024;-79
2023/09/21 04:27:39;;;;;;;0.40;0.40;;;;;;;;;;5040079;28;20048;-78
2023/09/21 04:30:08;;;;;;;0.80;0.80;;;;;;;;;;5046810;28;20026;-81
2023/09/21 04:32:35;;;;;;;0.60;0.60;;;;;;;;;;5047275;28;20032;-79
2023/09/21 04:35:03;;;;;;;0.90;0.90;;;;;;;;;;5043751;28;20030;-79
2023/09/21 04:37:30;;;;;;;0.70;0.70;;;;;;;;;;5047161;28;20033;-79
2023/09/21 04:39:56;;;;;;;0.60;0.60;;;;;;;;;;5049343;28;20032;-79
2023/09/21 04:42:22;;;;;;;0.60;0.60;;;;;;;;;;5049806;28;20109;-79
2023/09/21 04:44:48;;;;;;;0.60;0.60;;;;;;;;;;5052931;28;20071;-79
2023/09/21 04:47:14;;;;;;;0.82;0.82;;;;;;;;;;5053338;28;20025;-79
2023/09/21 04:49:41;;;;;;;0.65;0.65;;;;;;;;;;5052889;28;20036;-78
2023/09/21 04:52:07;;;;;;;0.70;0.70;;;;;;;;;;5043414;28;20037;-78
2023/09/21 04:54:33;;;;;;;0.95;0.60;;;;;;;;;;5041789;28;20036;-79
2023/09/21 04:56:59;;;;;;;0.60;0.60;;;;;;;;;;5052312;28;20139;-79
2023/09/21 04:59:25;;;;;;;0.60;0.60;;;;;;;;;;5051431;28;20036;-79
2023/09/21 05:01:51;;;;;;;0.43;0.43;;;;;;;;;;5051708;28;20049;-79
2023/09/21 05:04:18;;;;;;;0.50;0.50;;;;;;;;;;5050403;28;20025;-80
2023/09/21 05:06:45;;;;;;;0.60;0.60;;;;;;;;;;5048072;28;20097;-78
2023/09/21 05:09:11;;;;;;;0.73;0.73;;;;;;;;;;5047046;28;20017;-79
2023/09/21 05:11:38;;;;;;;0.70;0.70;;;;;;;;;;5041417;28;20356;-79
2023/09/21 05:14:08;;;;;;;0.80;0.80;;;;;;;;;;5048114;28;20018;-78
2023/09/21 05:16:34;;;;;;;0.43;0.43;;;;;;;;;;5045086;28;20033;-79
2023/09/21 05:19:00;;;;;;;1.48;0.50;;;;;;;;;;5045694;28;20040;-79
2023/09/21 05:21:27;;;;;;;0.60;0.60;;;;;;;;;;5047907;28;20124;-78
2023/09/21 05:23:53;;;;;;;0.70;0.70;;;;;;;;;;5047748;28;20037;-78
2023/09/21 05:26:19;;;;;;;0.80;0.80;;;;;;;;;;5049052;28;20040;-79
2023/09/21 05:28:46;;;;;;;0.52;0.52;;;;;;;;;;5048888;28;20093;-79
2023/09/21 05:31:13;;;;;;;0.60;0.60;;;;;;;;;;5045892;28;20044;-79
2023/09/21 05:33:39;;;;;;;0.70;0.70;;;;;;;;;;5042066;28;20105;-79
2023/09/21 05:36:06;;;;;;;0.70;0.70;;;;;;;;;;5044400;28;20049;-81
2023/09/21 05:38:33;;;;;;;0.70;0.70;;;;;;;;;;5043853;28;20057;-79
2023/09/21 05:41:04;;;;;;;0.68;0.68;;;;;;;;;;5048836;28;20021;-79
2023/09/21 05:43:30;;;;;;;0.50;0.50;;;;;;;;;;5048342;28;20018;-79
2023/09/21 05:45:57;;;;;;;0.50;0.50;;;;;;;;;;5046080;28;20022;-79
2023/09/21 05:48:23;;;;;;;0.60;0.60;;;;;;;;;;5043754;28;20053;-79
2023/09/21 05:50:49;;;;;;;0.52;0.52;;;;;;;;;;5044535;28;20032;-79
2023/09/21 05:53:16;;;;;;;0.60;0.60;;;;;;;;;;5043029;28;20171;-79
2023/09/21 05:55:45;;;;;;;0.57;0.57;;;;;;;;;;5037560;28;20488;-79
2023/09/21 05:58:11;;;;;;;0.70;0.65;;;;;;;;;;5040638;28;20047;-79
2023/09/21 06:00:37;;;;;;;1.02;0.60;;;;;;;;;;5039161;28;20025;-78
2023/09/21 06:03:04;;;;;;;0.75;0.75;;;;;;;;;;5041396;28;20067;-79
2023/09/21 06:05:30;;;;;;;1.10;0.98;;;;;;;;;;5038311;28;20033;-77
2023/09/21 06:07:56;;;;;;;0.95;0.95;;;;;;;;;;5036607;28;20352;-77
2023/09/21 06:10:23;;;;;;;1.15;1.10;;;;;;;;;;5036577;28;20030;-77
2023/09/21 06:12:50;;;;;;;0.93;0.93;;;;;;;;;;5036859;28;20472;-77
2023/09/21 06:15:16;;;;;;;0.65;0.65;;;;;;;;;;5047156;28;20022;-77
2023/09/21 06:17:43;;;;;;;1.13;0.80;;;;;;;;;;5056640;28;20064;-77
2023/09/21 06:20:09;;;;;;;0.60;0.60;;;;;;;;;;5039261;28;20504;-78
2023/09/21 06:22:37;;;;;;;0.80;0.80;;;;;;;;;;5045934;28;20052;-77
2023/09/21 06:25:03;;;;;;;0.65;0.65;;;;;;;;;;5056189;28;20033;-76
2023/09/21 06:27:33;;;;;;;0.77;0.77;;;;;;;;;;5042588;28;20033;-77
2023/09/21 06:29:59;;;;;;;0.70;0.70;;;;;;;;;;5041162;28;20022;-77
2023/09/21 06:32:25;;;;;;;0.60;0.60;;;;;;;;;;5039161;28;20081;-78
2023/09/21 06:34:51;;;;;;;0.82;0.82;;;;;;;;;;5037816;28;20022;-78
2023/09/21 06:37:22;;;;;;;0.90;0.90;;;;;;;;;;5037090;28;20049;-77
2023/09/21 06:39:48;;;;;;;0.77;0.77;;;;;;;;;;5040787;28;20025;-78
2023/09/21 06:42:15;;;;;;;1.65;0.95;;;;;;;;;;5047474;28;20022;-78
2023/09/21 06:44:41;;;;;;;0.63;0.63;;;;;;;;;;5050766;28;20029;-79
2023/09/21 06:47:07;;;;;;;0.70;0.70;;;;;;;;;;5048194;28;20056;-79
2023/09/21 06:49:36;;;;;;;0.95;0.93;;;;;;;;;;5049043;28;20018;-78
2023/09/21 06:52:04;;;;;;;1.02;1.00;;;;;;;;;;5045526;28;20152;-80
2023/09/21 06:54:30;;;;;;;0.80;0.80;;;;;;;;;;5041094;28;20033;-78
2023/09/21 06:57:03;;;;;;;0.95;0.95;;;;;;;;;;5041186;28;20096;-79
2023/09/21 06:59:34;;;;;;;0.75;0.75;;;;;;;;;;5040732;28;20388;-79
2023/09/21 07:02:00;;;;;;;1.13;1.02;;;;;;;;;;5032489;28;20447;-77
2023/09/21 07:04:28;;;;;;;1.10;0.68;;;;;;;;;;5039826;28;20025;-80
2023/09/21 07:06:54;;;;;;;0.90;0.90;;;;;;;;;;5038407;28;20038;-78
2023/09/21 07:09:20;;;;;;;0.60;0.60;;;;;;;;;;5039735;28;20029;-78
2023/09/21 07:11:49;;;;;;;0.73;0.73;;;;;;;;;;5040038;28;20045;-79
2023/09/21 07:14:15;;;;;;;0.60;0.60;;;;;;;;;;5040574;28;20040;-79
2023/09/21 07:16:41;;;;;;;0.60;0.60;;;;;;;;;;5038946;28;20021;-77
2023/09/21 07:19:07;;;;;;;0.63;0.63;;;;;;;;;;5038558;28;20069;-79
2023/09/21 07:21:33;;;;;;;0.70;0.70;;;;;;;;;;5039568;28;20063;-79
2023/09/21 07:24:02;;;;;;;0.60;0.60;;;;;;;;;;5038393;28;20067;-78
2023/09/21 07:26:30;;;;;;;0.50;0.50;;;;;;;;;;5040987;28;20127;-78
2023/09/21 07:28:57;;;;;;;0.65;0.65;;;;;;;;;;5044313;28;20025;-78
2023/09/21 07:31:24;;;;;;;0.80;0.80;;;;;;;;;;5046374;28;20017;-77
2023/09/21 07:33:56;;;;;;;0.80;0.80;;;;;;;;;;5043086;28;20072;-78
2023/09/21 07:36:26;;;;;;;0.63;0.63;;;;;;;;;;5037344;28;20384;-78
2023/09/21 07:38:53;;;;;;;0.70;0.70;;;;;;;;;;5043651;28;20105;-80
2023/09/21 07:41:20;;;;;;;0.98;0.98;;;;;;;;;;5044131;28;20036;-78
2023/09/21 07:43:48;;;;;;;0.75;0.75;;;;;;;;;;5039210;28;20025;-79
2023/09/21 07:46:14;;;;;;;1.25;0.77;;;;;;;;;;5040326;28;20057;-79
2023/09/21 07:48:40;;;;;;;0.70;0.70;;;;;;;;;;5039839;28;20061;-79
2023/09/21 07:51:07;;;;;;;0.55;0.55;;;;;;;;;;5033504;28;20036;-79
2023/09/21 07:53:33;;;;;;;0.90;0.90;;;;;;;;;;5040698;28;20025;-81
2023/09/21 07:56:04;;;;;;;1.02;1.02;;;;;;;;;;5040677;28;20424;-78
2023/09/21 07:58:30;;;;;;;0.68;0.68;;;;;;;;;;5048397;28;20034;-79
2023/09/21 08:00:56;;;;;;;0.77;0.77;;;;;;;;;;5038264;28;20033;-77
2023/09/21 08:03:26;;;;;;;0.63;0.63;;;;;;;;;;5039546;28;20025;-78
2023/09/21 08:05:55;;;;;;;0.73;0.73;;;;;;;;;;5044821;28;20057;-78
2023/09/21 08:08:21;;;;;;;0.95;0.95;;;;;;;;;;5025659;28;20018;-79
2023/09/21 08:10:50;;;;;;;0.70;0.70;;;;;;;;;;5032670;28;20034;-78
2023/09/21 08:13:17;;;;;;;0.70;0.70;;;;;;;;;;5043501;28;20030;-79
2023/09/21 08:15:43;;;;;;;0.75;0.75;;;;;;;;;;5048267;28;20033;-77
2023/09/21 08:18:12;;;;;;;0.68;0.68;;;;;;;;;;5043076;28;20022;-76
2023/09/21 08:20:42;;;;;;;0.50;0.50;;;;;;;;;;5050690;28;20021;-75
2023/09/21 08:23:08;;;;;;;0.40;0.40;;;;;;;;;;5053601;28;20085;-78
2023/09/21 08:25:37;;;;;;;0.73;0.73;;;;;;;;;;5051128;28;20029;-77
2023/09/21 08:28:04;;;;;;;0.70;0.70;;;;;;;;;;5049830;28;20025;-77
2023/09/21 08:30:31;;;;;;;0.95;0.95;;;;;;;;;;5034987;28;20453;-77
2023/09/21 08:32:57;;;;;;;0.70;0.68;;;;;;;;;;5035003;28;20111;-77
2023/09/21 08:35:23;;;;;;;0.60;0.60;;;;;;;;;;5036704;28;20121;-78
2023/09/21 08:37:50;;;;;;;0.77;0.77;;;;;;;;;;5036999;28;20113;-78
2023/09/21 08:40:16;;;;;;;0.90;0.90;;;;;;;;;;5037557;28;20033;-78
2023/09/21 08:42:44;;;;;;;0.80;0.80;;;;;;;;;;5043946;28;20113;-77
2023/09/21 08:45:11;;;;;;;0.77;0.77;;;;;;;;;;5041059;28;20052;-77
2023/09/21 08:47:40;;;;;;;0.73;0.73;;;;;;;;;;5041629;28;20037;-77
2023/09/21 08:50:10;;;;;;;3.13;0.95;;;;;;;;;;5042265;28;20036;-77
2023/09/21 08:52:37;;;;;;;1.23;1.02;;;;;;;;;;5036186;28;20081;-78
2023/09/21 08:55:03;;;;;;;1.17;1.15;;;;;;;;;;5037552;28;20033;-78
2023/09/21 08:57:31;;;;;;;0.85;0.85;;;;;;;;;;5036736;28;20078;-79
2023/09/21 09:00:00;;;;;;;1.23;1.00;;;;;;;;;;5037327;28;20128;-81
2023/09/21 09:02:26;;;;;;;1.75;1.10;;;;;;;;;;5045655;28;20048;-79
2023/09/21 09:04:53;;;;;;;1.08;1.08;;;;;;;;;;5046406;28;20053;-78
2023/09/21 09:07:20;;;;;;;1.08;1.02;;;;;;;;;;5048787;28;20028;-77
2023/09/21 09:09:46;;;;;;;0.80;0.80;;;;;;;;;;5042833;28;20029;-79
2023/09/21 09:12:25;;;;;;;1.13;1.02;;;;;;;;;;5040798;28;20085;-78
2023/09/21 09:14:57;;;;;;;0.80;0.80;;;;;;;;;;5058644;28;20033;-77
2023/09/21 09:17:30;;;;;;;0.80;0.80;;;;;;;;;;5050671;28;20048;-78
2023/09/21 09:19:57;;;;;;;1.08;0.98;;;;;;;;;;5044983;28;20032;-79
2023/09/21 09:22:24;;;;;;;1.13;1.02;;;;;;;;;;5042923;28;20025;-80
2023/09/21 09:24:51;;;;;;;3.50;1.20;;;;;;;;;;5048024;28;20034;-78
2023/09/21 09:27:17;;;;;;;1.00;1.00;;;;;;;;;;5047033;28;20036;-77
2023/09/21 09:29:47;;;;;;;0.90;0.90;;;;;;;;;;5049203;28;20033;-78
2023/09/21 09:32:14;;;;;;;1.02;1.02;;;;;;;;;;5052066;28;20025;-79
2023/09/21 09:34:41;;;;;;;1.00;1.00;;;;;;;;;;5053119;28;20027;-78
2023/09/21 09:37:12;;;;;;;0.93;0.93;;;;;;;;;;5051545;28;20038;-77
2023/09/21 09:39:38;;;;;;;1.50;0.88;;;;;;;;;;5044763;28;20075;-79
2023/09/21 09:42:06;;;;;;;0.90;0.90;;;;;;;;;;5044740;28;20080;-78
2023/09/21 09:44:35;;;;;;;0.93;0.93;;;;;;;;;;5046412;28;20028;-78
2023/09/21 09:47:03;;;;;;;0.95;0.82;;;;;;;;;;5042986;28;20535;-78
2023/09/21 09:49:32;;;;;;;0.90;0.90;;;;;;;;;;5045400;28;20065;-78
2023/09/21 09:52:01;;;;;;;0.90;0.90;;;;;;;;;;5044453;28;20100;-77
2023/09/21 09:54:29;;;;;;;0.90;0.90;;;;;;;;;;5043868;28;20044;-78
2023/09/21 09:56:57;;;;;;;1.30;1.30;;;;;;;;;;5040552;28;20033;-79
2023/09/21 09:59:24;;;;;;;0.98;0.98;;;;;;;;;;5040376;28;20033;-78
2023/09/21 10:01:51;;;;;;;0.95;0.95;;;;;;;;;;5044411;28;20029;-77
2023/09/21 10:04:21;;;;;;;0.85;0.85;;;;;;;;;;5041059;28;20033;-77
2023/09/21 10:06:48;;;;;;;1.00;1.00;;;;;;;;;;5042986;28;20018;-77
2023/09/21 10:09:15;;;;;;;0.88;0.88;;;;;;;;;;5044163;28;20049;-77
2023/09/21 10:11:45;;;;;;;1.15;1.13;;;;;;;;;;5044381;28;20025;-78
2023/09/21 10:14:13;;;;;;;1.10;1.10;;;;;;;;;;5043732;28;20036;-78
2023/09/21 10:16:48;;;;;;;1.02;1.00;;;;;;;;;;5040866;28;20120;-77
2023/09/21 10:19:17;;;;;;;0.90;0.90;;;;;;;;;;5045882;28;20033;-78
2023/09/21 10:21:45;;;;;;;1.00;1.00;;;;;;;;;;5049511;28;20040;-78
2023/09/21 10:24:16;;;;;;;0.90;0.90;;;;;;;;;;5046396;28;20022;-77
2023/09/21 10:26:45;;;;;;;1.02;1.02;;;;;;;;;;5023879;28;20081;-77
2023/09/21 10:29:15;;;;;;;1.27;1.17;;;;;;;;;;5045141;28;20464;-78
2023/09/21 10:31:45;;;;;;;1.05;1.05;;;;;;;;;;5040598;28;20029;-78
2023/09/21 10:34:16;;;;;;;0.73;0.73;;;;;;;;;;5049175;28;20048;-78
2023/09/21 10:36:44;;;;;;;0.93;0.93;;;;;;;;;;5045848;28;20025;-78
2023/09/21 10:39:11;;;;;;;1.08;1.08;;;;;;;;;;5042094;28;20033;-78
2023/09/21 10:41:43;;;;;;;1.80;1.70;;;;;;;;;;5043499;28;20029;-77
2023/09/21 10:44:09;;;;;;;1.25;1.15;;;;;;;;;;5043858;28;20025;-78
2023/09/21 10:46:37;;;;;;;1.17;1.10;;;;;;;;;;5044084;28;20067;-77
2023/09/21 10:49:03;;;;;;;1.00;1.00;;;;;;;;;;5044266;28;20025;-77
2023/09/21 10:51:33;;;;;;;0.90;0.90;;;;;;;;;;5044444;28;20099;-79
2023/09/21 10:53:59;;;;;;;1.10;1.10;;;;;;;;;;5043570;28;20113;-77
2023/09/21 10:56:26;;;;;;;0.90;0.90;;;;;;;;;;5041289;28;20048;-77
2023/09/21 10:58:52;;;;;;;1.20;1.20;;;;;;;;;;5043227;28;20029;-77
2023/09/21 11:01:23;;;;;;;1.20;1.20;;;;;;;;;;5041899;28;20485;-77
2023/09/21 11:03:50;;;;;;;1.20;1.20;;;;;;;;;;5040310;28;20032;-77
2023/09/21 11:06:17;;;;;;;1.60;1.50;;;;;;;;;;5041652;28;20109;-77
2023/09/21 11:08:45;;;;;;;1.10;1.10;;;;;;;;;;5042712;28;20087;-77
2023/09/21 11:11:12;;;;;;;1.00;1.00;;;;;;;;;;5044517;28;20084;-77
2023/09/21 11:13:38;;;;;;;1.42;0.90;;;;;;;;;;5043663;28;20021;-77
2023/09/21 11:16:05;;;;;;;1.00;1.00;;;;;;;;;;5042937;28;20037;-77
2023/09/21 11:18:32;;;;;;;0.88;0.88;;;;;;;;;;5051697;28;20055;-77
2023/09/21 11:20:59;;;;;;;0.90;0.90;;;;;;;;;;5054182;28;20044;-77
2023/09/21 11:23:25;;;;;;;1.23;1.20;;;;;;;;;;5055294;28;20043;-75
2023/09/21 11:25:51;;;;;;;0.90;0.90;;;;;;;;;;5053142;28;20029;-77
2023/09/21 11:28:20;;;;;;;1.23;0.85;;;;;;;;;;5055551;28;20230;-77
2023/09/21 11:30:50;;;;;;;0.90;0.90;;;;;;;;;;5052442;28;20077;-78
2023/09/21 11:33:19;;;;;;;0.85;0.85;;;;;;;;;;5041803;28;20060;-77
2023/09/21 11:35:45;;;;;;;1.13;1.00;;;;;;;;;;5041498;28;20022;-78
2023/09/21 11:38:14;;;;;;;1.15;1.05;;;;;;;;;;5038212;28;20069;-77
2023/09/21 11:40:40;;;;;;;0.90;0.90;;;;;;;;;;5040686;28;20060;-79
2023/09/21 11:43:10;;;;;;;1.00;1.00;;;;;;;;;;5040416;28;20021;-79
2023/09/21 11:45:37;;;;;;;0.95;0.95;;;;;;;;;;5038569;28;20021;-79
2023/09/21 11:48:03;;;;;;;0.90;0.90;;;;;;;;;;5037198;28;20021;-78
2023/09/21 11:50:34;;;;;;;1.27;1.13;;;;;;;;;;5038174;28;20052;-79
2023/09/21 11:53:06;;;;;;;1.10;1.00;;;;;;;;;;5037925;28;20374;-79
2023/09/21 11:55:33;;;;;;;1.45;0.90;;;;;;;;;;5038138;28;20030;-78
2023/09/21 11:58:09;;;;;;;1.05;1.00;;;;;;;;;;5040188;28;20365;-78
2023/09/21 12:00:45;;;;;;;0.80;0.80;;;;;;;;;;5037680;28;20024;-78
2023/09/21 12:03:16;;;;;;;1.05;1.05;;;;;;;;;;5045401;28;20017;-77
2023/09/21 12:05:45;;;;;;;0.80;0.80;;;;;;;;;;5055807;28;20029;-76
2023/09/21 12:08:15;;;;;;;0.70;0.70;;;;;;;;;;5055514;28;20145;-77
2023/09/21 12:10:41;;;;;;;1.10;1.10;;;;;;;;;;5051867;28;20033;-78
2023/09/21 12:13:11;;;;;;;0.70;0.70;;;;;;;;;;5043159;28;20017;-78
2023/09/21 12:15:37;;;;;;;0.80;0.80;;;;;;;;;;5042355;28;20034;-78
2023/09/21 12:18:04;;;;;;;0.90;0.90;;;;;;;;;;5042081;28;20029;-80
2023/09/21 12:20:30;;;;;;;0.82;0.82;;;;;;;;;;5050756;28;20036;-78
2023/09/21 12:22:57;;;;;;;0.70;0.70;;;;;;;;;;5046956;28;20033;-78
2023/09/21 12:25:24;;;;;;;0.68;0.68;;;;;;;;;;5040136;28;20071;-78
2023/09/21 12:27:50;;;;;;;0.90;0.90;;;;;;;;;;5052689;28;20041;-78
2023/09/21 12:30:17;;;;;;;0.68;0.68;;;;;;;;;;5040662;28;20033;-79
2023/09/21 12:32:43;;;;;;;0.80;0.80;;;;;;;;;;5041709;28;20089;-78
2023/09/21 12:35:11;;;;;;;0.82;0.82;;;;;;;;;;5039595;28;20065;-78
2023/09/21 12:37:39;;;;;;;0.75;0.75;;;;;;;;;;5036108;28;20025;-78
2023/09/21 12:40:11;;;;;;;0.50;0.50;;;;;;;;;;5034078;28;20026;-77
2023/09/21 12:42:41;;;;;;;0.80;0.80;;;;;;;;;;5036547;28;20108;-78
2023/09/21 12:45:09;;;;;;;0.60;0.60;;;;;;;;;;5038680;28;20045;-80
2023/09/21 12:47:35;;;;;;;0.70;0.70;;;;;;;;;;5038359;28;20024;-79
2023/09/21 12:50:03;;;;;;;0.77;0.77;;;;;;;;;;5037094;28;20053;-79
2023/09/21 12:52:29;;;;;;;0.60;0.60;;;;;;;;;;5036447;28;20488;-79
2023/09/21 12:54:56;;;;;;;0.70;0.70;;;;;;;;;;5037732;28;20017;-79
2023/09/21 12:57:22;;;;;;;0.80;0.80;;;;;;;;;;5047471;28;20133;-78
2023/09/21 12:59:51;;;;;;;0.60;0.60;;;;;;;;;;5050259;28;20036;-79
2023/09/21 13:02:18;;;;;;;1.00;1.00;;;;;;;;;;5037981;28;20100;-78
2023/09/21 13:04:45;;;;;;;1.00;1.00;;;;;;;;;;5039614;28;20091;-79
2023/09/21 13:07:11;;;;;;;0.93;0.93;;;;;;;;;;5042540;28;20053;-80
2023/09/21 13:09:39;;;;;;;0.80;0.80;;;;;;;;;;5043539;28;20071;-79
2023/09/21 13:12:05;;;;;;;0.88;0.88;;;;;;;;;;5040516;28;20167;-79
2023/09/21 13:14:32;;;;;;;1.00;1.00;;;;;;;;;;5039894;28;20033;-79
2023/09/21 13:17:04;;;;;;;0.75;0.75;;;;;;;;;;5042164;28;20483;-79
2023/09/21 13:19:30;;;;;;;0.85;0.85;;;;;;;;;;5042044;28;20037;-78
2023/09/21 13:21:56;;;;;;;0.85;0.85;;;;;;;;;;5044908;28;20044;-78
2023/09/21 13:24:22;;;;;;;0.75;0.75;;;;;;;;;;5042210;28;20040;-79
2023/09/21 13:26:48;;;;;;;1.13;0.90;;;;;;;;;;5044541;28;20484;-80
2023/09/21 13:29:14;;;;;;;0.60;0.60;;;;;;;;;;5042981;28;20021;-80
2023/09/21 13:31:40;;;;;;;0.75;0.75;;;;;;;;;;5042723;28;20101;-78
2023/09/21 13:34:07;;;;;;;0.88;0.88;;;;;;;;;;5044085;28;20036;-79
2023/09/21 13:36:33;;;;;;;0.80;0.80;;;;;;;;;;5045251;28;20043;-79
2023/09/21 13:38:59;;;;;;;0.70;0.70;;;;;;;;;;5043134;28;20152;-78
2023/09/21 13:41:25;;;;;;;0.98;0.98;;;;;;;;;;5025653;28;20052;-80
2023/09/21 13:43:51;;;;;;;0.80;0.80;;;;;;;;;;5023272;28;20040;-79
2023/09/21 13:46:18;;;;;;;1.17;1.08;;;;;;;;;;5042128;28;20032;-79
2023/09/21 13:48:44;;;;;;;0.60;0.60;;;;;;;;;;5041301;28;20049;-78
2023/09/21 13:51:10;;;;;;;0.98;0.98;;;;;;;;;;5039811;28;20029;-79
2023/09/21 13:53:37;;;;;;;1.10;0.95;;;;;;;;;;5042243;28;20032;-79
2023/09/21 13:56:04;;;;;;;0.95;0.82;;;;;;;;;;5042061;28;20036;-79
2023/09/21 13:58:30;;;;;;;0.73;0.73;;;;;;;;;;5043826;28;20032;-79
2023/09/21 14:00:57;;;;;;;0.73;0.73;;;;;;;;;;5044840;28;20042;-80
2023/09/21 14:03:23;;;;;;;0.60;0.60;;;;;;;;;;5044216;28;20033;-81
2023/09/21 14:05:49;;;;;;;0.73;0.73;;;;;;;;;;5041522;28;20044;-79
2023/09/21 14:08:22;;;;;;;0.80;0.80;;;;;;;;;;5039212;28;20029;-80
2023/09/21 14:10:48;;;;;;;1.20;1.10;;;;;;;;;;5041460;28;20028;-78
2023/09/21 14:13:15;;;;;;;1.33;1.23;;;;;;;;;;5039442;28;20084;-79
2023/09/21 14:15:41;;;;;;;0.95;0.90;;;;;;;;;;5039321;28;20014;-78
2023/09/21 14:18:08;;;;;;;1.10;1.10;;;;;;;;;;5041176;28;20468;-79
2023/09/21 14:20:36;;;;;;;1.10;1.00;;;;;;;;;;5039784;28;20067;-81
2023/09/21 14:23:02;;;;;;;1.90;1.33;;;;;;;;;;5031313;28;20492;-80
2023/09/21 14:25:28;;;;;;;1.58;1.48;;;;;;;;;;5039952;28;20029;-80
2023/09/21 14:27:54;;;;;;;1.67;1.20;;;;;;;;;;5031396;28;20030;-78
2023/09/21 14:30:21;;;;;;;1.20;1.20;;;;;;;;;;5024975;28;20071;-79
2023/09/21 14:32:52;;;;;;;1.60;1.50;;;;;;;;;;5032554;28;20017;-80
2023/09/21 14:35:18;;;;;;;1.40;1.25;;;;;;;;;;5026232;28;20024;-78
2023/09/21 14:37:46;;;;;;;1.00;1.00;;;;;;;;;;5071881;23;20044;-80
2023/09/21 14:40:12;;;;;;;1.63;1.30;;;;;;;;;;5064612;28;20021;-77
2023/09/21 14:42:39;;;;;;;1.40;1.30;;;;;;;;;;5064231;28;20025;-79
2023/09/21 14:45:05;;;;;;;0.90;0.90;;;;;;;;;;5060674;28;20028;-79